Time;durP1;ratioP1;P1;durP2;ratioP2;P2;SDS_P1;SDS_P2;PMS_P1;PMS_P2;Temp;Humidity;BMP_temperature;BMP_pressure;BME280_temperature;BME280_humidity;BME280_pressure;Samples;Min_cycle;Max_cycle;Signal;HPM_P1;HPM_P2
2022/12/15 00:42:39;;;;;;;;;52.25;42.25;;;;;2.76;54.64;99833.13;6149869;23;45971;-74
2022/12/15 00:45:05;;;;;;;;;40.50;34.75;;;;;2.73;54.66;99834.16;6149537;23;45535;-73
2022/12/15 00:47:32;;;;;;;;;46.00;37.00;;;;;2.73;54.53;99828.97;6149397;23;45804;-74
2022/12/15 01:21:17;;;;;;;;;52.00;41.25;;;;;2.36;55.46;99847.25;6150010;23;45448;-75
2022/12/15 01:23:42;;;;;;;;;47.00;38.00;;;;;2.35;55.84;99861.09;6149045;23;46332;-74
2022/12/15 01:26:08;;;;;;;;;50.25;41.00;;;;;2.35;55.11;99858.50;6149827;23;46522;-75
2022/12/15 01:28:34;;;;;;;;;51.50;42.75;;;;;2.34;55.47;99862.84;6149295;23;46115;-73
2022/12/15 01:30:59;;;;;;;;;52.75;42.25;;;;;2.27;55.72;99839.97;6149928;23;45509;-71
2022/12/15 01:33:24;;;;;;;;;50.50;40.25;;;;;2.26;55.65;99843.47;6149499;23;45482;-74
2022/12/15 01:36:01;;;;;;;;;41.50;36.00;;;;;2.32;55.92;99854.31;6148801;23;45907;-73
2022/12/15 01:38:27;;;;;;;;;48.50;44.00;;;;;2.35;55.75;99855.91;6149638;23;45687;-72
2022/12/15 01:40:58;;;;;;;;;55.00;42.00;;;;;2.35;56.18;99855.91;6149235;23;45696;-73
2022/12/15 01:43:27;;;;;;;;;47.25;42.00;;;;;2.36;55.89;99849.84;6149142;23;45609;-74
2022/12/15 01:45:55;;;;;;;;;47.75;42.75;;;;;2.35;55.81;99863.66;6149525;23;46139;-73
2022/12/15 01:48:29;;;;;;;;;47.50;41.00;;;;;2.35;56.14;99863.66;6149376;23;45561;-74
2022/12/15 01:50:58;;;;;;;;;46.50;41.00;;;;;2.35;55.96;99868.84;6149490;23;45685;-74
2022/12/15 01:53:25;;;;;;;;;53.50;42.00;;;;;2.32;55.87;99861.25;6149253;23;45720;-73
2022/12/15 01:55:50;;;;;;;;;49.50;43.50;;;;;2.30;56.21;99858.72;6148603;23;45968;-74
2022/12/15 02:01:51;;;;;;;;;45.00;41.50;;;;;2.29;56.19;99872.56;6144251;23;45666;-74
2022/12/15 02:04:19;;;;;;;;;43.50;39.00;;;;;2.29;56.40;99869.97;6149413;23;45709;-74
2022/12/15 02:06:44;;;;;;;;;48.25;40.50;;;;;2.29;56.46;99861.38;6122569;23;47554;-75
2022/12/15 02:09:11;;;;;;;;;52.25;38.50;;;;;2.27;56.37;99855.47;6148638;23;45548;-74
2022/12/15 02:12:09;;;;;;;;;51.25;44.00;;;;;2.27;56.21;99845.94;6149677;23;45666;-71
2022/12/15 02:14:56;;;;;;;;;51.25;40.00;;;;;2.26;56.47;99853.81;6121590;23;47457;-73
2022/12/15 02:17:30;;;;;;;;;56.25;46.75;;;;;2.22;56.40;99852.25;6148779;23;46445;-74
2022/12/15 02:20:01;;;;;;;;;52.50;42.50;;;;;2.19;56.09;99861.00;6149138;23;45975;-73
2022/12/15 02:22:26;;;;;;;;;54.75;42.00;;;;;2.17;56.58;99864.56;6148847;23;45542;-74
2022/12/15 02:25:12;;;;;;;;;46.67;39.67;;;;;2.15;56.38;99861.25;6148981;23;46184;-72
2022/12/15 02:28:00;;;;;;;;;54.50;42.75;;;;;2.11;56.10;99860.53;6149247;23;45494;-73
2022/12/15 02:31:48;;;;;;;;;54.00;43.50;;;;;2.11;56.56;99865.69;6149844;23;45705;-73
2022/12/15 02:33:53;;;;;;;;;53.00;43.75;;;;;2.08;56.64;99861.53;6148734;23;45447;-74
2022/12/15 02:36:31;;;;;;;;;52.25;43.75;;;;;1.96;56.55;99833.69;6149171;23;45509;-74
2022/12/15 02:38:56;;;;;;;;;48.00;40.50;;;;;2.08;56.86;99861.53;6149209;23;47485;-73
2022/12/15 02:44:51;;;;;;;;;56.50;40.75;;;;;1.99;57.29;99861.16;6149187;23;45557;-72
2022/12/15 02:47:19;;;;;;;;;47.50;41.50;;;;;1.96;57.13;99862.13;6149251;23;45550;-74
2022/12/15 02:50:09;;;;;;;;;60.25;46.00;;;;;1.93;57.16;99869.19;6149486;23;45839;-74
2022/12/15 02:52:49;;;;;;;;;51.25;45.00;;;;;1.87;57.08;99875.47;6148311;23;45490;-72
2022/12/15 02:55:49;;;;;;;;;51.00;44.00;;;;;1.83;57.34;99881.69;6149498;23;45651;-73
2022/12/15 03:01:43;;;;;;;;;43.25;40.00;;;;;1.72;57.93;99872.78;6147663;23;46017;-73
2022/12/15 03:04:10;;;;;;;;;49.75;42.00;;;;;1.69;57.83;99868.56;6148507;23;45557;-73
2022/12/15 03:06:36;;;;;;;;;52.50;42.00;;;;;1.66;57.90;99872.16;6149464;23;45501;-74
2022/12/15 03:09:02;;;;;;;;;56.00;42.25;;;;;1.63;57.51;99874.03;6148537;23;47377;-75
2022/12/15 03:11:28;;;;;;;;;46.75;40.00;;;;;1.55;57.74;99852.91;6148604;23;46262;-74
2022/12/15 03:17:15;;;;;;;;;50.25;45.00;;;;;1.55;58.10;99852.91;6148998;23;45492;-74
2022/12/15 03:19:41;;;;;;;;;55.25;47.50;;;;;1.51;57.93;99862.50;6148369;23;46582;-72
2022/12/15 03:22:06;;;;;;;;;47.50;40.50;;;;;1.47;57.74;99871.31;6149145;23;45968;-74
2022/12/15 03:24:32;;;;;;;;;55.50;44.25;;;;;1.41;58.44;99861.25;6148140;23;45539;-73
2022/12/15 03:26:57;;;;;;;;;50.33;43.67;;;;;1.42;57.81;99862.94;6148777;23;45456;-72
2022/12/15 03:32:44;;;;;;;;;53.25;42.25;;;;;1.38;57.90;99858.84;6148986;23;45797;-74
2022/12/15 03:35:11;;;;;;;;;55.00;45.00;;;;;1.34;58.41;99862.47;6148681;23;45470;-74
2022/12/15 03:37:37;;;;;;;;;53.75;45.00;;;;;1.35;58.44;99856.38;6149226;23;45726;-74
2022/12/15 03:40:03;;;;;;;;;50.25;41.50;;;;;1.32;58.41;99868.59;6148861;23;45514;-74
2022/12/15 03:42:47;;;;;;;;;49.75;43.50;;;;;1.30;58.69;99858.34;6147858;23;45959;-74
2022/12/15 03:45:13;;;;;;;;;52.25;45.00;;;;;1.25;58.53;99845.66;6148885;23;45400;-73
2022/12/15 03:47:42;;;;;;;;;40.00;34.00;;;;;1.25;58.72;99848.22;6149266;23;45836;-74
2022/12/15 03:50:08;;;;;;;;;48.75;43.00;;;;;1.19;58.95;99838.19;6148303;23;46502;-72
2022/12/15 03:52:33;;;;;;;;;44.50;39.50;;;;;1.24;59.16;99853.47;6147717;23;46116;-74
2022/12/15 03:55:00;;;;;;;;;61.25;44.00;;;;;1.19;58.52;99852.81;6148034;23;45365;-73
2022/12/15 03:57:25;;;;;;;;;51.75;45.75;;;;;1.20;58.24;99860.50;6148156;23;45820;-73
2022/12/15 04:03:12;;;;;;;;;8.75;0.00;;;;;1.17;58.83;99868.38;6142605;23;45696;-73
2022/12/15 04:05:37;;;;;;;;;56.50;46.25;;;;;1.17;59.09;99870.97;6148712;23;45573;-73
2022/12/15 04:08:03;;;;;;;;;39.00;35.75;;;;;1.16;58.83;99876.19;6148111;23;45651;-72
2022/12/15 04:10:31;;;;;;;;;42.50;38.25;;;;;1.17;59.13;99873.56;6147989;23;47234;-73
2022/12/15 04:12:57;;;;;;;;;54.25;46.00;;;;;1.17;59.34;99870.13;6148921;23;46177;-73
2022/12/15 04:15:23;;;;;;;;;52.25;43.00;;;;;1.16;58.96;99877.03;6122958;23;45766;-73
2022/12/15 04:17:48;;;;;;;;;64.00;43.00;;;;;1.17;59.01;99877.88;6150105;23;45619;-73
2022/12/15 04:20:14;;;;;;;;;54.75;45.00;;;;;1.18;58.99;99875.22;6150151;23;45486;-74
2022/12/15 04:22:41;;;;;;;;;54.50;45.00;;;;;1.19;59.47;99876.03;6150058;23;45613;-73
2022/12/15 05:32:05;;;;;;;;;51.25;42.75;;;;;1.26;59.05;99856.81;6149845;23;45569;-74
2022/12/15 05:34:33;;;;;;;;;52.25;45.25;;;;;1.24;59.24;99850.91;6149006;23;45846;-74
2022/12/15 05:37:00;;;;;;;;;55.50;42.50;;;;;1.25;59.41;99848.22;6149368;23;46379;-74
2022/12/15 05:39:26;;;;;;;;;43.75;36.25;;;;;1.24;59.47;99856.06;6148869;23;46801;-74
2022/12/15 05:41:53;;;;;;;;;58.00;45.25;;;;;1.26;58.86;99861.97;6148800;23;45549;-73
2022/12/15 05:44:20;;;;;;;;;46.25;39.00;;;;;1.26;59.28;99872.28;6148689;23;45691;-73
2022/12/15 05:46:45;;;;;;;;;44.75;39.50;;;;;1.19;58.79;99856.25;6148987;23;46603;-73
2022/12/15 05:49:16;;;;;;;;;43.50;39.50;;;;;1.24;59.02;99864.59;6147344;23;46156;-74
2022/12/15 05:51:44;;;;;;;;;53.00;44.50;;;;;1.23;58.86;99867.28;6149013;23;45778;-73
2022/12/15 05:54:11;;;;;;;;;49.50;40.50;;;;;1.23;58.85;99865.53;6149051;23;45529;-74
2022/12/15 05:56:37;;;;;;;;;44.75;36.50;;;;;1.23;59.37;99862.97;6148886;23;47555;-73
2022/12/15 05:59:04;;;;;;;;;45.25;40.00;;;;;1.24;59.32;99876.69;6149287;23;45678;-73
2022/12/15 06:04:51;;;;;;;;;51.50;36.75;;;;;1.10;59.22;99856.66;6143629;23;45726;-73
2022/12/15 06:07:16;;;;;;;;;43.75;40.50;;;;;1.22;59.29;99873.34;6122462;23;47391;-72
2022/12/15 06:09:41;;;;;;;;;27.25;23.25;;;;;1.24;58.74;99877.50;6148918;23;46183;-73
2022/12/15 06:12:07;;;;;;;;;46.75;41.25;;;;;1.26;58.94;99872.28;6149247;23;45604;-71
2022/12/15 06:14:32;;;;;;;;;51.25;40.00;;;;;1.26;59.11;99867.97;6149367;23;45633;-74
2022/12/15 06:16:58;;;;;;;;;40.50;39.50;;;;;1.23;58.74;99869.84;6148420;23;46283;-73
2022/12/15 06:19:24;;;;;;;;;51.00;43.00;;;;;1.30;59.40;99870.44;6148858;23;46158;-71
2022/12/15 06:21:49;;;;;;;;;47.75;44.50;;;;;1.30;59.09;99870.44;6122482;23;45500;-73
2022/12/15 06:24:14;;;;;;;;;48.00;38.75;;;;;1.31;58.65;99872.06;6149137;23;45589;-73
2022/12/15 06:26:40;;;;;;;;;59.50;43.75;;;;;1.33;59.20;99883.19;6123145;23;47454;-73
2022/12/15 06:29:09;;;;;;;;;42.75;39.50;;;;;1.31;59.25;99875.50;6149702;23;45580;-71
2022/12/15 06:34:56;;;;;;;;;61.75;41.75;;;;;1.34;59.13;99884.84;6149242;23;45528;-72
2022/12/15 06:37:21;;;;;;;;;50.25;41.50;;;;;1.34;58.69;99882.28;6148785;23;46192;-72
2022/12/15 06:39:47;;;;;;;;;50.50;40.50;;;;;1.34;59.12;99880.53;6148551;23;46984;-72
2022/12/15 06:42:13;;;;;;;;;48.50;43.00;;;;;1.31;58.78;99878.06;6149128;23;45620;-70
2022/12/15 06:44:38;;;;;;;;;45.00;38.00;;;;;1.36;59.11;99883.03;6149136;23;45379;-73
2022/12/15 06:50:25;;;;;;;;;61.50;47.00;;;;;1.36;58.47;99890.75;6148798;23;45750;-73
2022/12/15 06:52:51;;;;;;;;;45.50;40.00;;;;;1.36;58.76;99888.19;6148195;23;45411;-72
2022/12/15 06:55:18;;;;;;;;;55.25;45.00;;;;;1.36;58.99;99899.34;6148687;23;45725;-71
2022/12/15 06:57:47;;;;;;;;;21.50;16.00;;;;;1.34;58.83;99892.59;6145383;23;46317;-73
2022/12/15 07:00:14;;;;;;;;;51.75;41.50;;;;;1.30;59.69;99884.13;6148530;23;46408;-74
2022/12/15 07:02:41;;;;;;;;;44.75;42.25;;;;;1.37;58.85;99901.03;6149789;23;45780;-71
2022/12/15 07:05:06;;;;;;;;;39.75;36.75;;;;;1.36;59.46;99899.34;6147697;23;45421;-71
2022/12/15 07:07:31;;;;;;;;;56.25;42.50;;;;;1.36;59.15;99898.50;6148511;23;47115;-72
2022/12/15 07:09:57;;;;;;;;;48.75;37.00;;;;;1.34;58.97;99896.00;6149100;23;45628;-72
2022/12/15 07:12:22;;;;;;;;;61.00;44.00;;;;;1.26;58.87;99885.19;6148886;23;45653;-70
2022/12/15 07:14:48;;;;;;;;;55.25;45.50;;;;;1.30;59.03;99901.38;6149282;23;45437;-73
2022/12/15 07:20:35;;;;;;;;;46.75;41.50;;;;;1.22;59.10;99910.28;6149048;23;45593;-71
2022/12/15 07:23:06;;;;;;;;;60.00;47.50;;;;;1.20;59.06;99906.94;6148390;23;45612;-72
2022/12/15 07:25:35;;;;;;;;;54.00;41.25;;;;;1.15;59.00;99916.63;6148794;23;45533;-71
2022/12/15 07:28:00;;;;;;;;;50.00;43.25;;;;;1.05;59.40;99907.59;6148697;23;46747;-72
2022/12/15 07:30:26;;;;;;;;;48.50;44.00;;;;;1.07;58.98;99920.44;6149165;23;45477;-72
2022/12/15 07:36:13;;;;;;;;;58.25;44.50;;;;;1.11;59.47;99942.59;6149098;23;45592;-70
2022/12/15 07:38:38;;;;;;;;;46.00;40.00;;;;;1.08;58.92;99945.34;6148925;23;47433;-72
2022/12/15 07:41:06;;;;;;;;;57.50;45.75;;;;;1.06;59.18;99953.13;6148533;23;46911;-71
2022/12/15 07:43:31;;;;;;;;;58.25;42.50;;;;;1.09;59.83;99946.97;6122335;23;45472;-70
2022/12/15 07:45:57;;;;;;;;;57.50;48.00;;;;;1.13;59.11;99951.13;6123029;23;45727;-72
2022/12/15 07:48:23;;;;;;;;;50.50;41.50;;;;;1.15;59.36;99939.00;6150916;23;47477;-72
2022/12/15 07:50:50;;;;;;;;;54.50;45.00;;;;;1.11;59.40;99938.28;6151717;23;45735;-72
2022/12/15 07:53:16;;;;;;;;;56.00;48.00;;;;;1.13;59.33;99944.22;6150442;23;45631;-70
2022/12/15 07:55:42;;;;;;;;;55.50;47.00;;;;;1.19;59.34;99958.56;6150918;23;45604;-72
2022/12/15 07:58:07;;;;;;;;;52.50;45.00;;;;;1.16;59.71;99938.09;6150443;23;47345;-71
2022/12/15 08:00:33;;;;;;;;;55.25;44.25;;;;;1.20;59.10;99949.94;6150702;23;46025;-71
2022/12/15 08:06:20;;;;;;;;;54.00;42.75;;;;;1.18;59.48;99944.88;6144098;23;45724;-73
2022/12/15 08:08:45;;;;;;;;;46.50;44.00;;;;;1.27;59.20;99974.56;6150470;23;46403;-71
2022/12/15 08:11:13;;;;;;;;;51.00;45.25;;;;;1.26;59.51;99971.16;6150189;23;46111;-72
2022/12/15 08:13:40;;;;;;;;;57.00;45.00;;;;;1.26;59.04;99988.38;6149510;23;45462;-70
2022/12/15 08:16:05;;;;;;;;;51.00;42.50;;;;;1.27;59.35;99993.47;6149707;23;45466;-72
2022/12/15 08:18:31;;;;;;;;;46.75;42.25;;;;;1.27;59.57;99997.78;6149154;23;47427;-72
2022/12/15 08:21:08;;;;;;;;;55.50;46.75;;;;;1.28;58.85;100004.63;6150050;23;46027;-72
2022/12/15 08:23:34;;;;;;;;;50.50;42.50;;;;;1.27;58.61;99996.06;6149772;23;45736;-70
2022/12/15 08:26:04;;;;;;;;;59.25;46.50;;;;;1.28;59.20;99991.75;6149442;23;45464;-72
2022/12/15 08:28:31;;;;;;;;;53.00;45.00;;;;;1.29;59.04;99996.00;6149193;23;46841;-72
2022/12/15 08:31:02;;;;;;;;;35.75;30.00;;;;;1.16;58.37;99979.34;6149734;23;45697;-72
2022/12/15 08:36:48;;;;;;;;;50.25;39.25;;;;;1.32;58.92;100006.19;6149873;23;45415;-71
2022/12/15 08:39:14;;;;;;;;;53.50;43.25;;;;;1.33;58.15;100007.03;6149557;23;47233;-71
2022/12/15 08:41:40;;;;;;;;;58.50;45.00;;;;;1.33;58.58;99996.69;6122840;23;48270;-72
2022/12/15 08:44:05;;;;;;;;;49.50;35.75;;;;;1.34;58.76;99990.63;6149927;23;45519;-71
2022/12/15 08:46:32;;;;;;;;;55.50;41.00;;;;;1.36;58.74;99987.06;6150053;23;45550;-71
2022/12/15 08:48:58;;;;;;;;;50.50;44.25;;;;;1.35;58.84;99985.38;6149837;23;46466;-71
2022/12/15 08:51:27;;;;;;;;;59.75;46.25;;;;;1.32;59.01;99974.38;6123854;23;47145;-71
2022/12/15 08:53:54;;;;;;;;;56.50;47.50;;;;;1.41;58.83;99992.03;6150804;23;45426;-72
2022/12/15 08:56:22;;;;;;;;;49.00;43.25;;;;;1.44;58.25;99986.75;6150606;23;45747;-71
2022/12/15 08:58:53;;;;;;;;;54.00;45.00;;;;;1.46;58.42;99993.50;6150665;23;45592;-72
2022/12/15 09:01:21;;;;;;;;;56.75;48.25;;;;;1.47;58.67;99987.44;6150075;23;45866;-72
2022/12/15 09:07:08;;;;;;;;;59.00;44.00;;;;;1.53;58.01;99981.16;6145986;23;45475;-70
2022/12/15 09:09:34;;;;;;;;;57.75;48.00;;;;;1.52;58.24;99979.50;6149438;23;46595;-71
2022/12/15 09:11:59;;;;;;;;;60.50;46.75;;;;;1.48;58.56;99972.78;6122285;23;47698;-72
2022/12/15 09:14:25;;;;;;;;;63.00;51.00;;;;;1.61;57.85;99994.59;6122664;23;45598;-72
2022/12/15 09:17:00;;;;;;;;;62.25;47.00;;;;;1.64;57.69;99997.03;6123241;23;45517;-72
2022/12/15 09:19:25;;;;;;;;;56.00;48.00;;;;;1.67;57.92;100002.88;6122907;23;48033;-72
2022/12/15 09:21:51;;;;;;;;;50.50;37.50;;;;;1.69;58.30;99998.50;6149517;23;46600;-71
2022/12/15 09:24:17;;;;;;;;;57.50;45.00;;;;;1.74;58.29;100002.59;6148757;23;45536;-72
2022/12/15 09:26:45;;;;;;;;;46.00;40.50;;;;;1.77;57.75;100008.50;6122285;23;45675;-71
2022/12/15 09:29:12;;;;;;;;;59.00;48.25;;;;;1.81;58.07;100007.44;6148618;23;46443;-71
2022/12/15 09:31:37;;;;;;;;;63.50;48.75;;;;;1.84;57.58;100002.13;6148920;23;47577;-71
2022/12/15 09:37:24;;;;;;;;;63.00;48.25;;;;;1.88;57.66;100013.19;6149603;23;45499;-71
2022/12/15 09:39:50;;;;;;;;;55.75;45.75;;;;;1.86;57.20;100013.22;6148963;23;46339;-69
2022/12/15 09:42:34;;;;;;;;;45.25;40.25;;;;;1.88;57.62;100013.19;6148788;23;46286;-73
2022/12/15 09:45:14;;;;;;;;;43.50;39.75;;;;;1.88;57.78;100019.19;6149986;23;45454;-70
2022/12/15 09:47:50;;;;;;;;;53.25;47.25;;;;;1.80;57.87;100007.50;6148972;23;45556;-71
2022/12/15 09:50:18;;;;;;;;;54.00;44.00;;;;;1.85;57.64;100023.63;6148629;23;46576;-72
2022/12/15 09:52:46;;;;;;;;;54.75;48.00;;;;;1.95;57.21;100030.06;6149164;23;46100;-71
2022/12/15 09:55:32;;;;;;;;;53.00;44.50;;;;;1.96;57.73;100026.56;6150022;23;45683;-71
2022/12/15 09:58:16;;;;;;;;;49.25;40.00;;;;;2.00;57.60;100044.44;6150423;23;45533;-71
2022/12/15 10:00:55;;;;;;;;;58.50;48.00;;;;;2.00;56.84;100034.09;6149746;23;46652;-70
2022/12/15 10:03:26;;;;;;;;;58.50;48.50;;;;;2.04;57.33;100042.56;6148540;23;46098;-72
2022/12/15 10:06:09;;;;;;;;;58.25;50.25;;;;;2.07;57.10;100026.91;6149104;23;45690;-71
2022/12/15 10:08:47;;;;;;;;;62.50;47.75;;;;;2.08;56.96;100026.00;6148724;23;45462;-71
2022/12/15 10:11:53;;;;;;;;;56.25;48.00;;;;;2.11;57.03;100024.13;6148581;23;46504;-70
2022/12/15 10:14:37;;;;;;;;;46.50;42.75;;;;;2.15;56.80;100027.41;6057493;23;47113;-71
2022/12/15 10:17:05;;;;;;;;;45.25;36.75;;;;;2.17;57.25;100017.00;6057624;23;45654;-71
2022/12/15 10:19:42;;;;;;;;;55.50;45.75;;;;;2.20;57.29;100015.13;6058209;23;45512;-72
2022/12/15 10:22:15;;;;;;;;;57.00;47.50;;;;;2.23;56.88;100009.81;6057733;23;46736;-71
2022/12/15 10:24:41;;;;;;;;;56.00;45.00;;;;;2.26;56.94;100012.25;6057306;23;46364;-72
2022/12/15 10:27:17;;;;;;;;;63.00;49.00;;;;;2.30;57.10;100007.78;6058538;23;45519;-70
2022/12/15 10:29:45;;;;;;;;;63.50;46.25;;;;;2.32;57.21;100011.94;6057974;23;45592;-73
2022/12/15 10:32:14;;;;;;;;;49.50;43.75;;;;;2.36;57.15;100007.50;6057066;23;46567;-72
2022/12/15 10:34:39;;;;;;;;;54.50;48.00;;;;;2.31;57.16;99993.94;6058276;23;45937;-72
2022/12/15 10:37:05;;;;;;;;;58.00;47.00;;;;;2.45;57.13;100000.13;6058087;23;46286;-72
2022/12/15 10:39:42;;;;;;;;;66.25;47.00;;;;;2.49;56.55;100000.81;6058736;23;45573;-71
2022/12/15 10:42:22;;;;;;;;;56.75;44.75;;;;;2.53;56.88;99986.84;6057511;23;47588;-71
2022/12/15 10:44:50;;;;;;;;;61.50;44.00;;;;;2.56;56.90;99978.09;6057431;23;45604;-71
2022/12/15 10:47:17;;;;;;;;;55.25;45.00;;;;;2.57;56.40;99969.44;6058385;23;45697;-71
2022/12/15 10:49:43;;;;;;;;;55.75;45.75;;;;;2.57;56.24;99959.09;6058651;23;45848;-70
2022/12/15 10:52:33;;;;;;;;;43.75;40.75;;;;;2.62;56.83;99957.13;6145203;23;46226;-72
2022/12/15 10:54:59;;;;;;;;;71.25;50.75;;;;;2.63;56.49;99951.88;6146499;23;47061;-72
2022/12/15 10:57:29;;;;;;;;;56.00;46.75;;;;;2.62;56.49;99952.78;6148593;23;45560;-71
2022/12/15 11:00:18;;;;;;;;;57.75;46.00;;;;;2.67;56.25;99950.81;6148510;23;45554;-72
2022/12/15 11:02:43;;;;;;;;;53.75;45.00;;;;;2.69;56.16;99941.25;6148945;23;47508;-71
2022/12/15 11:05:14;;;;;;;;;56.50;40.75;;;;;2.70;56.23;99948.06;6148935;23;46062;-70
2022/12/15 11:07:44;;;;;;;;;55.50;43.00;;;;;2.71;56.17;99935.97;6149488;23;45848;-72
2022/12/15 11:10:21;;;;;;;;;60.75;48.25;;;;;2.69;56.04;99937.81;6150829;23;45511;-71
2022/12/15 11:13:19;;;;;;;;;63.00;48.00;;;;;2.63;56.15;99914.84;6149880;23;45639;-71
2022/12/15 11:15:47;;;;;;;;;60.75;46.25;;;;;2.70;56.18;99923.97;6143833;23;45949;-70
2022/12/15 11:21:35;;;;;;;;;46.75;40.00;;;;;2.67;55.86;99922.38;6148647;23;45601;-72
2022/12/15 11:24:17;;;;;;;;;60.25;45.75;;;;;2.66;56.09;99923.28;6148652;23;45679;-70
2022/12/15 11:27:00;;;;;;;;;59.50;45.00;;;;;2.59;56.19;99897.81;6150061;23;46018;-71
2022/12/15 11:30:00;;;;;;;;;66.75;49.00;;;;;2.65;55.89;99900.91;6149974;23;45793;-70
2022/12/15 11:32:32;;;;;;;;;59.50;48.25;;;;;2.69;56.08;99904.19;6149113;23;45727;-71
2022/12/15 11:38:42;;;;;;;;;66.50;46.50;;;;;2.69;56.15;99889.53;6149599;23;45669;-71
2022/12/15 11:41:24;;;;;;;;;55.75;46.50;;;;;2.70;56.45;99898.13;6149053;23;45690;-70
2022/12/15 11:44:10;;;;;;;;;66.50;50.00;;;;;2.70;56.39;99893.75;6150132;23;45535;-71
2022/12/15 11:46:41;;;;;;;;;51.50;43.75;;;;;2.69;56.30;99886.94;6149190;23;46318;-71
2022/12/15 11:49:25;;;;;;;;;28.00;20.00;;;;;2.70;56.34;99880.03;6149429;23;46107;-74
2022/12/15 11:52:10;;;;;;;;;44.75;41.75;;;;;2.70;56.29;99882.59;6149557;23;45586;-72
2022/12/15 11:55:06;;;;;;;;;48.50;43.50;;;;;2.73;56.27;99872.09;6149350;23;45537;-70
2022/12/15 11:57:59;;;;;;;;;54.25;45.75;;;;;2.75;55.88;99867.69;6149649;23;46200;-72
2022/12/15 12:00:27;;;;;;;;;51.75;45.25;;;;;2.78;56.30;99860.59;6148272;23;45757;-72
2022/12/15 12:03:31;;;;;;;;;40.25;36.25;;;;;2.85;55.86;99863.72;6149056;23;45618;-72
2022/12/15 12:06:11;;;;;;;;;47.75;39.25;;;;;2.87;55.59;99860.13;6057585;23;45833;-70
2022/12/15 12:08:54;;;;;;;;;54.25;43.75;;;;;2.91;55.55;99861.66;6056799;23;45631;-71
2022/12/15 12:11:28;;;;;;;;;53.00;41.75;;;;;2.94;55.24;99858.91;6057040;23;46404;-72
2022/12/15 12:14:02;;;;;;;;;59.25;45.25;;;;;2.95;55.15;99844.22;6057436;23;45711;-72
2022/12/15 12:16:34;;;;;;;;;42.75;36.00;;;;;2.95;55.09;99839.03;6057339;23;45664;-71
2022/12/15 12:22:29;;;;;;;;;51.50;45.00;;;;;3.00;55.13;99836.22;6055640;23;45766;-71
2022/12/15 12:25:10;;;;;;;;;47.25;39.75;;;;;3.03;55.10;99839.47;6058263;23;45690;-70
2022/12/15 12:27:54;;;;;;;;;56.50;44.75;;;;;3.05;54.56;99835.06;6058392;23;45916;-72
2022/12/15 12:30:23;;;;;;;;;57.75;44.75;;;;;3.08;54.75;99827.13;6057885;23;46423;-71
2022/12/15 12:33:01;;;;;;;;;47.75;38.25;;;;;3.09;54.32;99815.00;6057213;23;46963;-72
2022/12/15 12:38:52;;;;;;;;;39.50;35.50;;;;;3.09;54.30;99817.59;6058185;23;45552;-71
2022/12/15 12:41:46;;;;;;;;;42.25;37.50;;;;;3.11;53.99;99814.03;6056659;23;46453;-71
2022/12/15 12:44:28;;;;;;;;;51.50;43.00;;;;;3.15;53.97;99822.47;6147935;23;46098;-71
2022/12/15 12:46:57;;;;;;;;;47.75;40.00;;;;;3.18;54.00;99822.31;6147986;23;45544;-72
2022/12/15 12:49:29;;;;;;;;;54.00;43.00;;;;;3.22;53.68;99816.03;6148163;23;45637;-70
2022/12/15 12:51:58;;;;;;;;;41.75;39.00;;;;;3.23;53.47;99815.13;6147396;23;46626;-72
2022/12/15 12:54:35;;;;;;;;;41.00;32.25;;;;;3.23;53.19;99826.31;6147257;23;45566;-72
2022/12/15 12:57:10;;;;;;;;;36.75;27.00;;;;;3.23;52.98;99810.78;6147230;23;45783;-73
2022/12/15 12:59:39;;;;;;;;;39.75;33.75;;;;;3.21;53.13;99809.19;6147321;23;45433;-72
2022/12/15 13:02:14;;;;;;;;;42.50;36.00;;;;;3.23;53.34;99810.78;6147318;23;45615;-71
2022/12/15 13:04:41;;;;;;;;;41.50;37.50;;;;;3.26;53.08;99813.22;6147568;23;45473;-71
2022/12/15 13:07:28;;;;;;;;;45.75;37.75;;;;;3.28;53.09;99807.97;6099197;23;1146679;-71
2022/12/15 13:10:11;;;;;;;;;46.00;38.75;;;;;3.27;52.97;99803.69;6148618;23;45770;-73
2022/12/15 13:12:47;;;;;;;;;40.00;34.75;;;;;3.26;53.14;99789.91;6149553;23;45561;-72
2022/12/15 13:15:28;;;;;;;;;43.25;37.50;;;;;3.27;52.46;99793.34;6149803;23;45929;-72
2022/12/15 13:18:05;;;;;;;;;32.75;30.25;;;;;3.27;52.73;99801.94;6122806;23;45993;-71
2022/12/15 13:20:33;;;;;;;;;45.00;36.00;;;;;3.29;53.01;99804.44;6148968;23;45581;-72
2022/12/15 13:23:20;;;;;;;;;50.75;44.25;;;;;3.29;52.78;99804.44;6148062;23;46416;-72
2022/12/15 13:25:51;;;;;;;;;48.25;37.75;;;;;3.27;52.67;99812.28;6148744;23;45660;-71
2022/12/15 13:28:35;;;;;;;;;42.75;37.00;;;;;3.27;52.89;99809.72;6147647;23;45523;-70
2022/12/15 13:31:23;;;;;;;;;43.00;33.50;;;;;3.29;52.71;99804.44;6121053;23;45792;-72
2022/12/15 13:33:54;;;;;;;;;46.00;38.50;;;;;3.28;52.89;99806.19;6147210;23;47147;-72
2022/12/15 13:36:38;;;;;;;;;40.25;32.75;;;;;3.30;52.79;99803.50;6147421;23;46239;-71
2022/12/15 13:39:26;;;;;;;;;42.25;37.00;;;;;3.24;53.14;99790.94;6147454;23;45427;-71
2022/12/15 13:41:51;;;;;;;;;41.75;36.00;;;;;3.34;52.89;99812.81;6147689;23;45640;-72
2022/12/15 13:44:23;;;;;;;;;42.25;33.00;;;;;3.35;52.62;99793.75;6147501;23;47291;-71
2022/12/15 13:46:51;;;;;;;;;55.75;30.25;;;;;3.37;52.59;99805.69;6147266;23;46980;-70
2022/12/15 13:49:33;;;;;;;;;42.25;31.75;;;;;3.40;52.92;99796.94;6149409;23;45490;-70
2022/12/15 13:52:13;;;;;;;;;44.75;32.50;;;;;3.26;52.72;99766.63;6147582;23;45546;-71
2022/12/15 13:54:41;;;;;;;;;43.75;38.00;;;;;3.44;52.27;99777.72;6147983;23;48304;-72
2022/12/15 13:57:14;;;;;;;;;31.75;28.25;;;;;3.46;52.51;99781.03;6147551;23;46190;-70
2022/12/15 13:59:49;;;;;;;;;45.25;34.25;;;;;3.48;52.27;99784.41;6148560;23;45439;-72
2022/12/15 14:02:33;;;;;;;;;35.00;30.25;;;;;3.51;51.93;99796.34;6148288;23;45638;-70
2022/12/15 14:08:22;;;;;;;;;35.50;28.50;;;;;3.53;51.51;99792.75;6144965;23;46084;-72
2022/12/15 14:10:54;;;;;;;;;37.25;31.75;;;;;3.54;51.48;99775.44;6149861;23;45523;-73
2022/12/15 14:13:32;;;;;;;;;30.75;25.75;;;;;3.54;50.91;99778.03;6149373;23;45562;-70
2022/12/15 14:16:03;;;;;;;;;33.75;30.00;;;;;3.47;51.22;99763.75;6148288;23;46809;-71
2022/12/15 14:18:37;;;;;;;;;29.00;25.00;;;;;3.54;50.79;99776.28;6147319;23;45877;-71
2022/12/15 14:24:30;;;;;;;;;31.50;26.50;;;;;3.58;50.56;99776.94;6147843;23;45468;-71
2022/12/15 14:26:56;;;;;;;;;30.75;25.00;;;;;3.57;50.48;99778.69;6147597;23;47278;-70
2022/12/15 14:29:23;;;;;;;;;38.00;33.25;;;;;3.62;50.21;99787.03;6148141;23;46163;-71
2022/12/15 14:31:52;;;;;;;;;34.75;23.75;;;;;3.64;50.09;99794.72;6147735;23;45675;-70
2022/12/15 14:34:22;;;;;;;;;37.00;34.00;;;;;3.65;49.93;99789.47;6147581;23;45576;-72
2022/12/15 14:40:15;;;;;;;;;32.75;26.50;;;;;3.70;49.62;99799.56;6147813;23;45660;-71
2022/12/15 14:42:42;;;;;;;;;32.00;28.75;;;;;3.71;49.31;99806.44;6147907;23;45819;-71
2022/12/15 14:45:25;;;;;;;;;28.25;25.00;;;;;3.72;49.09;99805.50;6148067;23;45728;-72
2022/12/15 14:47:55;;;;;;;;;18.25;16.75;;;;;3.68;48.30;99796.22;6148159;23;46375;-71
2022/12/15 14:50:23;;;;;;;;;32.75;25.50;;;;;3.72;48.50;99800.34;6148568;23;46205;-71
2022/12/15 14:56:20;;;;;;;;;28.50;24.00;;;;;3.75;48.61;99802.75;6148471;23;45714;-71
2022/12/15 14:59:07;;;;;;;;;33.00;28.00;;;;;3.77;48.64;99806.94;6147854;23;47552;-73
2022/12/15 15:01:34;;;;;;;;;24.25;23.00;;;;;3.77;48.01;99819.88;6000099;23;46191;-72
2022/12/15 15:04:05;;;;;;;;;33.00;25.00;;;;;3.76;47.08;99810.44;6000730;23;45914;-71
2022/12/15 15:06:35;;;;;;;;;19.50;18.25;;;;;3.77;46.91;99819.03;6000245;23;46633;-71
2022/12/15 15:09:31;;;;;;;;;23.75;20.00;;;;;3.77;46.42;99819.88;6026963;23;47288;-72
2022/12/15 15:12:04;;;;;;;;;27.25;24.75;;;;;3.75;46.95;99818.28;5943666;23;45738;-70
2022/12/15 15:14:39;;;;;;;;;21.25;17.75;;;;;3.76;45.84;99827.72;5943906;23;45602;-70
2022/12/15 15:17:15;;;;;;;;;28.00;22.75;;;;;3.77;45.57;99826.81;5944227;23;45723;-71
2022/12/15 15:19:58;;;;;;;;;19.75;18.25;;;;;3.75;45.57;99821.72;5944072;23;47457;-72
2022/12/15 15:22:34;;;;;;;;;21.00;19.50;;;;;3.75;44.64;99841.59;5944197;23;46027;-72